This is the latest recevied weather packets stored in our database for station/object G0TQM-11. If no packets are shown the sender has not sent any weather packets the latest 10 day(s).
| Time | Temp. | Humidity | Pressure | Rain* | Wind** | Luminosity | Snow |
|---|---|---|---|---|---|---|---|
| 1788639719 | 20° C | 46% | 1021.3 hPa | - | - | - | - |
| 1788638519 | 20° C | 46% | 1021.4 hPa | - | - | - | - |
| 1788637319 | 20.56° C | 46% | 1021.4 hPa | - | - | - | - |
| 1788636123 | 20.56° C | 45% | 1021.3 hPa | - | - | - | - |
| 1788634923 | 20.56° C | 45% | 1021.1 hPa | - | - | - | - |
| 1788633723 | 21.67° C | 43% | 1020.9 hPa | - | - | - | - |
| 1788632523 | 23.89° C | 37% | 1021 hPa | - | - | - | - |
| 1788631322 | 26.11° C | 36% | 1021 hPa | - | - | - | - |
| 1788630122 | 23.33° C | 40% | 1021.1 hPa | - | - | - | - |
| 1788628922 | 22.78° C | 40% | 1021 hPa | - | - | - | - |
| 1788627722 | 22.78° C | 41% | 1021 hPa | - | - | - | - |
| 1788626522 | 22.78° C | 41% | 1021 hPa | - | - | - | - |
| 1788625322 | 23.33° C | 41% | 1021.1 hPa | - | - | - | - |
| 1788624122 | 22.78° C | 41% | 1021.2 hPa | - | - | - | - |
| 1788622921 | 22.78° C | 43% | 1021.2 hPa | - | - | - | - |
| 1788621721 | 22.78° C | 42% | 1021 hPa | - | - | - | - |
| 1788620521 | 23.89° C | 38% | 1020.9 hPa | - | - | - | - |
| 1788619321 | 23.33° C | 43% | 1021.1 hPa | - | - | - | - |
| 1788618121 | 22.78° C | 42% | 1021 hPa | - | - | - | - |
| 1788616921 | 23.33° C | 41% | 1021 hPa | - | - | - | - |
| 1788615720 | 23.33° C | 40% | 1021.1 hPa | - | - | - | - |
| 1788614520 | 22.78° C | 42% | 1021 hPa | - | - | - | - |
| 1788613320 | 22.22° C | 46% | 1021.1 hPa | - | - | - | - |
| 1788612120 | 21.11° C | 46% | 1021 hPa | - | - | - | - |
| 1788610920 | 21.67° C | 47% | 1020.9 hPa | - | - | - | - |
* Rain since midnight (hover to see other rain measurements)
** Current wind speed in m/s (hover to see current wind gust speed)